Time;durP1;ratioP1;P1;durP2;ratioP2;P2;SDS_P1;SDS_P2;PMS_P1;PMS_P2;Temp;Humidity;BMP_temperature;BMP_pressure;BME280_temperature;BME280_humidity;BME280_pressure;Samples;Min_cycle;Max_cycle;Signal;HPM_P1;HPM_P2
2023/04/22 00:01:46;;;;;;;8.83;5.73;;;6.20;99.90;;;;;;12788167;23;20246;-81
2023/04/22 00:06:49;;;;;;;8.97;6.93;;;6.40;99.90;;;;;;12788539;23;20179;-81
2023/04/22 00:11:52;;;;;;;11.93;6.70;;;6.30;99.90;;;;;;12788154;23;20223;-81
2023/04/22 00:16:55;;;;;;;8.13;5.73;;;6.40;99.90;;;;;;12791424;23;20175;-82
2023/04/22 00:21:57;;;;;;;7.07;5.93;;;6.30;99.90;;;;;;12790977;23;20222;-82
2023/04/22 00:27:00;;;;;;;10.77;7.03;;;6.30;99.90;;;;;;12803368;23;20187;-81
2023/04/22 00:32:02;;;;;;;14.47;6.70;;;6.10;99.90;;;;;;12763348;23;20538;-82
2023/04/22 00:37:05;;;;;;;7.00;5.27;;;6.00;99.90;;;;;;12764762;23;20207;-81
2023/04/22 00:42:08;;;;;;;9.93;6.30;;;6.20;99.90;;;;;;12763379;23;20581;-81
2023/04/22 00:47:11;;;;;;;9.37;6.00;;;6.50;99.90;;;;;;12763543;23;20203;-82
2023/04/22 00:52:14;;;;;;;8.17;6.03;;;6.60;99.90;;;;;;12739269;23;20179;-82
2023/04/22 00:57:17;;;;;;;9.80;6.50;;;6.60;99.90;;;;;;12762665;23;20207;-82
2023/04/22 01:02:20;;;;;;;10.07;6.53;;;6.50;99.90;;;;;;12762850;23;20227;-82
2023/04/22 01:07:23;;;;;;;5.90;4.67;;;6.40;99.90;;;;;;12763185;23;20188;-82
2023/04/22 01:12:25;;;;;;;10.73;5.57;;;6.60;99.90;;;;;;12762623;23;20179;-81
2023/04/22 01:17:30;;;;;;;8.03;6.27;;;6.80;99.90;;;;;;12762557;23;20266;-81
2023/04/22 01:22:39;;;;;;;7.67;5.97;;;6.60;99.90;;;;;;12762579;23;20184;-82
2023/04/22 01:27:42;;;;;;;8.53;5.33;;;6.30;99.90;;;;;;12762014;23;20196;-82
2023/04/22 01:32:45;;;;;;;6.27;5.27;;;6.00;99.90;;;;;;12762530;23;20180;-82
2023/04/22 01:37:49;;;;;;;8.07;5.13;;;6.20;99.90;;;;;;12781699;23;20173;-82
2023/04/22 01:42:52;;;;;;;10.80;5.80;;;6.30;99.90;;;;;;12762227;23;20219;-82
2023/04/22 01:47:55;;;;;;;10.90;6.03;;;6.10;99.90;;;;;;12789141;23;20234;-82
2023/04/22 01:52:58;;;;;;;7.63;5.50;;;6.00;99.90;;;;;;12738769;23;20574;-82
2023/04/22 01:58:01;;;;;;;6.40;5.23;;;5.50;99.90;;;;;;12761840;23;20204;-81
2023/04/22 02:03:03;;;;;;;8.27;5.60;;;5.40;99.90;;;;;;12789076;23;20233;-82
2023/04/22 02:08:06;;;;;;;7.77;5.70;;;5.40;99.90;;;;;;12761584;23;20207;-82
2023/04/22 02:13:09;;;;;;;9.47;6.10;;;5.20;99.90;;;;;;12761004;23;20179;-82
2023/04/22 02:18:11;;;;;;;9.37;6.00;;;4.80;99.90;;;;;;12762372;23;20234;-82
2023/04/22 02:23:16;;;;;;;7.97;6.23;;;4.90;99.90;;;;;;12788650;23;20188;-82
2023/04/22 02:28:19;;;;;;;8.30;4.63;;;4.90;99.90;;;;;;12762687;23;20535;-82
2023/04/22 02:33:22;;;;;;;6.93;5.63;;;5.00;99.90;;;;;;12786516;23;20287;-82
2023/04/22 02:38:26;;;;;;;7.23;5.87;;;4.70;99.90;;;;;;12760711;23;20651;-82
2023/04/22 02:43:29;;;;;;;7.53;6.07;;;;;;;;;;12761798;23;20180;-82
2023/04/22 02:48:31;;;;;;;7.63;6.20;;;4.50;99.90;;;;;;12761211;23;20208;-82
2023/04/22 02:53:34;;;;;;;10.20;5.80;;;4.40;99.90;;;;;;12761402;23;20180;-82
2023/04/22 02:58:36;;;;;;;11.00;6.20;;;4.50;99.90;;;;;;12759921;23;20273;-82
2023/04/22 03:03:39;;;;;;;9.83;6.67;;;4.30;99.90;;;;;;12788437;23;20549;-82
2023/04/22 03:08:45;;;;;;;11.60;6.47;;;4.30;99.90;;;;;;12760489;23;20200;-82
2023/04/22 03:13:47;;;;;;;7.27;5.33;;;4.20;99.90;;;;;;12760906;23;20210;-82
2023/04/22 03:18:50;;;;;;;9.53;6.20;;;4.20;99.90;;;;;;12761305;23;20180;-82
2023/04/22 03:23:53;;;;;;;11.27;7.13;;;4.20;99.90;;;;;;12787702;23;20171;-82
2023/04/22 03:28:56;;;;;;;9.17;6.20;;;4.00;99.90;;;;;;12760959;23;20274;-82
2023/04/22 03:33:59;;;;;;;6.80;5.33;;;4.10;99.90;;;;;;12736350;23;20179;-82
2023/04/22 03:39:04;;;;;;;7.50;5.80;;;4.10;99.90;;;;;;12804998;23;20168;-82
2023/04/22 03:44:09;;;;;;;7.80;5.17;;;4.00;99.90;;;;;;12760722;23;20246;-82
2023/04/22 03:49:13;;;;;;;9.67;5.57;;;4.10;99.90;;;;;;12760014;23;20231;-82
2023/04/22 03:54:17;;;;;;;11.33;6.07;;;4.00;99.90;;;;;;12760084;23;20183;-82
2023/04/22 03:59:24;;;;;;;8.50;5.53;;;4.20;99.90;;;;;;12759330;23;20215;-82
2023/04/22 04:04:28;;;;;;;9.90;5.50;;;4.10;99.90;;;;;;12759034;23;20586;-82
2023/04/22 04:09:35;;;;;;;10.93;6.30;;;4.10;99.90;;;;;;12736228;23;20542;-82
2023/04/22 04:14:37;;;;;;;12.13;7.30;;;4.20;99.90;;;;;;12759517;23;20917;-82
2023/04/22 04:19:41;;;;;;;7.57;5.07;;;4.00;99.90;;;;;;12760445;23;20235;-82
2023/04/22 04:24:46;;;;;;;10.77;6.80;;;4.10;99.90;;;;;;12758781;23;20223;-82
2023/04/22 04:29:54;;;;;;;11.77;7.20;;;4.30;99.90;;;;;;12759815;23;20230;-82
2023/04/22 04:35:20;;;;;;;10.63;7.50;;;4.50;99.90;;;;;;12772116;23;20180;-82
2023/04/22 04:40:31;;;;;;;10.47;7.03;;;4.70;99.90;;;;;;12763687;23;20184;-82
2023/04/22 04:45:59;;;;;;;9.90;7.87;;;4.90;99.90;;;;;;12784388;23;20243;-82
2023/04/22 04:51:08;;;;;;;12.30;7.77;;;5.20;99.90;;;;;;12762181;23;20200;-82
2023/04/22 04:56:16;;;;;;;17.47;7.77;;;5.50;99.90;;;;;;12804309;23;20262;-82
2023/04/22 05:01:20;;;;;;;9.53;7.07;;;5.90;99.90;;;;;;12762333;23;20585;-82
2023/04/22 05:06:25;;;;;;;11.67;7.20;;;6.10;99.90;;;;;;12762695;23;20238;-83
2023/04/22 05:11:34;;;;;;;12.30;7.40;;;;;;;;;;12762521;23;20261;-82
2023/04/22 05:16:44;;;;;;;11.30;7.67;;;7.10;99.90;;;;;;12762938;23;20176;-82
2023/04/22 05:21:48;;;;;;;6.83;5.57;;;7.30;99.90;;;;;;12762672;23;20179;-82
2023/04/22 05:26:52;;;;;;;10.97;6.77;;;7.50;99.90;;;;;;12762822;23;20534;-82
2023/04/22 05:31:54;;;;;;;4.47;3.73;;;8.20;99.90;;;;;;12788767;23;20729;-82
2023/04/22 05:36:57;;;;;;;8.53;5.53;;;8.80;99.90;;;;;;12789442;23;20180;-82
2023/04/22 05:42:00;;;;;;;9.93;7.23;;;9.10;99.90;;;;;;12762219;23;20184;-82
2023/04/22 05:47:03;;;;;;;13.57;9.83;;;9.00;99.90;;;;;;12738454;23;20204;-82
2023/04/22 05:52:06;;;;;;;9.40;6.17;;;8.90;99.90;;;;;;12788600;23;20201;-82
2023/04/22 05:57:30;;;;;;;16.03;9.47;;;9.40;99.90;;;;;;12788697;23;20211;-82
2023/04/22 06:02:34;;;;;;;12.97;8.87;;;9.90;99.90;;;;;;12762112;23;20208;-82
2023/04/22 06:07:37;;;;;;;11.23;6.60;;;9.90;99.90;;;;;;12762249;23;20534;-82
2023/04/22 06:12:41;;;;;;;11.53;7.40;;;10.00;99.90;;;;;;12761396;23;20201;-82
2023/04/22 06:17:44;;;;;;;17.20;8.77;;;10.40;99.90;;;;;;12760459;23;20182;-82
2023/04/22 06:22:47;;;;;;;12.10;9.40;;;10.50;99.90;;;;;;12788666;23;20171;-82
2023/04/22 06:27:50;;;;;;;14.80;9.43;;;10.40;99.90;;;;;;12789027;23;20288;-82
2023/04/22 06:32:55;;;;;;;15.27;9.63;;;10.50;99.90;;;;;;12761317;23;20200;-82
2023/04/22 06:37:59;;;;;;;13.20;8.77;;;10.60;99.90;;;;;;12762158;23;20699;-82
2023/04/22 06:43:07;;;;;;;14.67;9.37;;;11.00;99.90;;;;;;12760668;23;20198;-82
2023/04/22 06:48:15;;;;;;;18.50;11.77;;;11.20;99.90;;;;;;12784216;23;20176;-82
2023/04/22 06:53:40;;;;;;;13.73;8.57;;;11.60;99.90;;;;;;12767589;23;20177;-82
2023/04/22 06:58:48;;;;;;;13.43;8.17;;;11.90;99.90;;;;;;12760450;23;20259;-82
2023/04/22 07:03:50;;;;;;;17.23;10.40;;;;;;;;;;12761401;23;20236;-82
2023/04/22 07:08:54;;;;;;;16.30;10.87;;;12.60;99.90;;;;;;12760741;23;20199;-82
2023/04/22 07:13:57;;;;;;;14.70;10.60;;;12.60;99.90;;;;;;12761790;23;20672;-82
2023/04/22 07:19:00;;;;;;;13.63;9.80;;;13.00;99.90;;;;;;12788195;23;20195;-82
2023/04/22 07:24:02;;;;;;;15.83;9.80;;;13.10;99.90;;;;;;12780125;23;20179;-82
2023/04/22 07:29:05;;;;;;;17.10;11.00;;;13.20;98.10;;;;;;12795091;23;20586;-82
2023/04/22 07:34:09;;;;;;;16.37;10.90;;;13.50;98.10;;;;;;12804203;23;20201;-82
2023/04/22 07:39:12;;;;;;;17.37;11.03;;;13.70;98.80;;;;;;12805015;23;20218;-81
2023/04/22 07:44:16;;;;;;;24.17;13.23;;;14.00;99.50;;;;;;12759677;23;20661;-81
2023/04/22 07:49:18;;;;;;;6.23;5.47;;;14.20;94.90;;;;;;12788247;23;20688;-81
2023/04/22 07:54:21;;;;;;;12.87;9.57;;;;;;;;;;12785125;23;20633;-81
2023/04/22 07:59:24;;;;;;;11.93;9.37;;;14.90;96.50;;;;;;12786749;23;20207;-84
2023/04/22 08:04:27;;;;;;;8.23;5.57;;;14.90;97.00;;;;;;12787273;23;20554;-81
2023/04/22 08:09:30;;;;;;;19.80;12.17;;;15.20;97.20;;;;;;12804504;23;20189;-81
2023/04/22 08:14:32;;;;;;;21.33;13.67;;;15.30;92.30;;;;;;12763469;23;20182;-82
2023/04/22 08:19:34;;;;;;;24.23;16.47;;;15.50;89.40;;;;;;12791830;23;20734;-82
2023/04/22 08:24:37;;;;;;;22.30;12.87;;;15.50;82.30;;;;;;12791210;23;20184;-82
2023/04/22 08:29:40;;;;;;;16.57;11.77;;;15.60;87.80;;;;;;12765328;23;20262;-82
2023/04/22 08:34:46;;;;;;;18.33;11.13;;;15.80;82.10;;;;;;12808276;23;20214;-82
2023/04/22 08:39:48;;;;;;;20.60;11.37;;;16.00;78.60;;;;;;12809986;23;20171;-82
2023/04/22 08:44:53;;;;;;;17.47;12.17;;;16.10;77.00;;;;;;12791544;23;20175;-81
2023/04/22 08:49:57;;;;;;;14.57;9.53;;;16.30;72.70;;;;;;12789161;23;20203;-81
2023/04/22 08:55:00;;;;;;;7.70;5.93;;;16.70;99.90;;;;;;12759862;23;20183;-81
2023/04/22 09:00:04;;;;;;;6.00;4.43;;;16.80;80.90;;;;;;12784154;23;20282;-82
2023/04/22 09:05:09;;;;;;;16.03;9.10;;;16.90;89.80;;;;;;12784759;23;20248;-82
2023/04/22 09:10:11;;;;;;;13.70;7.27;;;17.00;69.50;;;;;;12758753;23;20188;-80
2023/04/22 09:15:14;;;;;;;9.07;6.83;;;17.20;69.30;;;;;;12761081;23;20172;-82
2023/04/22 09:20:18;;;;;;;5.77;4.43;;;17.40;66.90;;;;;;12775965;23;20168;-81
2023/04/22 09:25:23;;;;;;;8.73;7.07;;;17.50;72.70;;;;;;12785518;23;20190;-81
2023/04/22 09:30:35;;;;;;;5.77;4.87;;;17.50;45.00;;;;;;12760238;23;20590;-82
2023/04/22 09:35:41;;;;;;;11.87;7.33;;;17.70;43.70;;;;;;12781640;23;20226;-82
2023/04/22 09:40:43;;;;;;;5.87;4.70;;;17.80;41.30;;;;;;12804496;23;20560;-81
2023/04/22 09:45:46;;;;;;;9.60;5.30;;;17.90;40.10;;;;;;12787482;23;20176;-82
2023/04/22 09:50:50;;;;;;;8.37;5.83;;;18.00;57.10;;;;;;12788138;23;20235;-82
2023/04/22 09:55:54;;;;;;;10.47;6.97;;;18.10;56.00;;;;;;12807074;23;20253;-81
2023/04/22 10:00:58;;;;;;;10.37;7.07;;;18.10;34.30;;;;;;12763603;23;20203;-82
2023/04/22 10:06:02;;;;;;;12.80;8.67;;;18.10;31.40;;;;;;12764260;23;20252;-80
2023/04/22 10:11:04;;;;;;;11.47;7.27;;;18.30;44.30;;;;;;12789909;23;20239;-81
2023/04/22 10:16:07;;;;;;;10.87;5.57;;;18.20;26.80;;;;;;12804396;23;20241;-81
2023/04/22 10:21:11;;;;;;;9.33;6.07;;;18.30;36.40;;;;;;12762418;23;20626;-82
2023/04/22 10:26:50;;;;;;;8.97;5.97;;;18.30;34.50;;;;;;12806414;23;20265;-81
2023/04/22 10:31:58;;;;;;;7.97;5.77;;;18.40;32.00;;;;;;12760964;23;20199;-80
2023/04/22 10:37:06;;;;;;;6.10;4.57;;;18.30;27.60;;;;;;12806471;23;20514;-81
2023/04/22 10:42:14;;;;;;;7.40;4.63;;;18.40;26.80;;;;;;12787456;23;20187;-81
2023/04/22 10:47:25;;;;;;;10.67;7.43;;;18.40;27.60;;;;;;12780689;23;20168;-81
2023/04/22 10:52:28;;;;;;;19.53;7.83;;;18.40;27.80;;;;;;12760330;23;20776;-79
2023/04/22 10:57:36;;;;;;;12.77;5.10;;;18.50;28.90;;;;;;12799682;23;20507;-81
2023/04/22 11:02:40;;;;;;;10.40;5.27;;;18.50;30.70;;;;;;12761980;23;20506;-80
2023/04/22 11:07:43;;;;;;;9.37;5.40;;;18.50;35.70;;;;;;12788092;23;20183;-80
2023/04/22 11:12:49;;;;;;;16.93;6.70;;;18.40;24.70;;;;;;12801631;23;20187;-81
2023/04/22 11:17:53;;;;;;;9.53;5.63;;;18.50;33.40;;;;;;12804888;23;20179;-81
2023/04/22 11:22:57;;;;;;;8.77;5.17;;;18.50;35.30;;;;;;12785589;23;20203;-81
2023/04/22 11:27:59;;;;;;;10.60;6.17;;;18.60;33.50;;;;;;12786445;23;20532;-81
2023/04/22 11:33:02;;;;;;;9.73;4.97;;;18.70;31.10;;;;;;12785200;23;20281;-81
2023/04/22 11:38:07;;;;;;;20.10;9.90;;;18.70;28.30;;;;;;12786682;23;20507;-81
2023/04/22 11:43:10;;;;;;;6.93;5.13;;;18.70;28.10;;;;;;12761236;23;20574;-81
2023/04/22 11:48:15;;;;;;;8.50;5.33;;;18.70;29.10;;;;;;12791257;23;20175;-81
2023/04/22 11:53:24;;;;;;;9.13;6.97;;;18.70;29.60;;;;;;12791141;23;20609;-81
2023/04/22 11:58:27;;;;;;;23.30;11.17;;;18.70;28.80;;;;;;12797990;23;20196;-80
2023/04/22 12:03:30;;;;;;;12.03;7.73;;;18.70;28.10;;;;;;12765415;23;20230;-80
2023/04/22 12:08:35;;;;;;;10.87;7.53;;;18.70;28.40;;;;;;12763429;23;20518;-83
2023/04/22 12:13:40;;;;;;;15.57;8.50;;;18.60;28.60;;;;;;12762683;23;20281;-84
2023/04/22 12:18:55;;;;;;;17.17;7.80;;;18.70;24.90;;;;;;12790652;23;20168;-83
2023/04/22 12:24:03;;;;;;;11.23;7.67;;;18.70;24.50;;;;;;12791080;23;20184;-82
2023/04/22 12:29:06;;;;;;;9.97;6.83;;;18.60;22.40;;;;;;12762885;23;20187;-82
2023/04/22 12:34:08;;;;;;;10.77;8.20;;;18.80;26.40;;;;;;12789417;23;20195;-81
2023/04/22 12:39:11;;;;;;;9.30;6.10;;;18.80;24.00;;;;;;12798403;23;20206;-89
2023/04/22 12:44:14;;;;;;;10.20;5.87;;;18.90;28.70;;;;;;12853456;23;20568;-89
2023/04/22 12:49:16;;;;;;;7.97;6.73;;;18.90;27.60;;;;;;12852612;23;20513;-89
2023/04/22 12:54:19;;;;;;;8.83;6.53;;;18.90;27.80;;;;;;12875813;23;20526;-90
2023/04/22 12:59:22;;;;;;;9.07;5.97;;;18.90;24.70;;;;;;12851128;23;20646;-90
2023/04/22 13:04:24;;;;;;;11.80;6.60;;;18.90;29.60;;;;;;12853875;23;20248;-89
2023/04/22 13:09:27;;;;;;;9.10;6.60;;;18.90;27.30;;;;;;12851254;23;20636;-90
2023/04/22 13:14:30;;;;;;;11.60;8.20;;;18.90;24.80;;;;;;12851011;23;20199;-88
2023/04/22 13:19:34;;;;;;;6.60;5.93;;;18.90;21.50;;;;;;12853288;23;20561;-89
2023/04/22 13:24:36;;;;;;;9.23;7.23;;;18.90;21.40;;;;;;12851052;23;20260;-89
2023/04/22 13:29:39;;;;;;;8.70;6.33;;;19.00;28.60;;;;;;12853001;23;20179;-89
2023/04/22 13:34:44;;;;;;;9.60;6.00;;;19.00;29.90;;;;;;12853026;23;20226;-86
2023/04/22 13:39:47;;;;;;;6.73;5.73;;;19.00;29.20;;;;;;12852910;23;20678;-90
2023/04/22 13:44:50;;;;;;;11.03;9.00;;;19.10;44.90;;;;;;12853627;23;20222;-89
2023/04/22 13:49:52;;;;;;;14.67;7.63;;;19.10;25.10;;;;;;12854642;23;20230;-89
2023/04/22 13:54:55;;;;;;;15.73;7.07;;;19.10;21.60;;;;;;12851346;23;20308;-88
2023/04/22 13:59:57;;;;;;;10.80;5.93;;;19.10;33.20;;;;;;12852012;23;20174;-88
2023/04/22 14:05:00;;;;;;;9.80;7.67;;;19.20;37.80;;;;;;12852926;23;20182;-88
2023/04/22 14:10:03;;;;;;;9.93;7.97;;;19.10;23.10;;;;;;12852119;23;20179;-88
2023/04/22 14:15:09;;;;;;;12.00;9.43;;;19.10;20.50;;;;;;12853333;23;20616;-88
2023/04/22 14:20:12;;;;;;;8.30;5.33;;;19.20;20.90;;;;;;12869917;23;20167;-88
2023/04/22 14:25:14;;;;;;;10.70;8.20;;;19.30;23.10;;;;;;12853743;23;20185;-88
2023/04/22 14:30:18;;;;;;;6.43;4.40;;;19.30;17.30;;;;;;12850045;23;20593;-88
2023/04/22 14:35:20;;;;;;;7.43;5.60;;;19.40;38.70;;;;;;12825973;23;20650;-89
2023/04/22 14:40:26;;;;;;;11.03;6.67;;;18.50;28.40;;;;;;12857204;23;20538;-88
2023/04/22 14:45:30;;;;;;;9.43;5.90;;;19.30;28.40;;;;;;12853438;23;20187;-88
2023/04/22 14:50:33;;;;;;;7.93;6.20;;;19.30;35.20;;;;;;12826399;23;20310;-88
2023/04/22 14:55:35;;;;;;;9.77;7.20;;;19.30;25.40;;;;;;12852853;23;20234;-89
2023/04/22 15:00:38;;;;;;;11.43;7.30;;;19.30;19.30;;;;;;12852776;23;20187;-89
2023/04/22 15:05:42;;;;;;;12.60;7.80;;;19.20;17.00;;;;;;12850424;23;20179;-89
2023/04/22 15:10:44;;;;;;;10.30;8.27;;;19.20;19.80;;;;;;12851782;23;20226;-88
2023/04/22 15:15:47;;;;;;;10.63;8.03;;;19.10;17.00;;;;;;12852360;23;20191;-89
2023/04/22 15:20:49;;;;;;;15.30;6.80;;;19.10;18.30;;;;;;12847378;23;20240;-89
2023/04/22 15:25:52;;;;;;;12.17;8.70;;;19.20;41.40;;;;;;12847169;23;20178;-88
2023/04/22 15:30:55;;;;;;;12.50;8.97;;;19.00;17.70;;;;;;12846894;23;20178;-89
2023/04/22 15:35:57;;;;;;;11.00;8.17;;;18.90;19.30;;;;;;12848125;23;20183;-89
2023/04/22 15:41:00;;;;;;;9.27;7.43;;;18.90;19.80;;;;;;12844546;23;20546;-89
2023/04/22 15:46:03;;;;;;;10.30;6.73;;;18.90;18.70;;;;;;12819161;23;20191;-90
2023/04/22 15:51:05;;;;;;;9.67;7.23;;;18.90;24.30;;;;;;12846789;23;20191;-89
2023/04/22 15:56:08;;;;;;;15.17;7.97;;;18.90;22.80;;;;;;12846176;23;20175;-90
2023/04/22 16:01:11;;;;;;;8.33;4.93;;;18.70;18.50;;;;;;12846615;23;20298;-89
2023/04/22 16:06:21;;;;;;;10.33;5.77;;;18.70;34.00;;;;;;12820977;23;20179;-89
2023/04/22 16:11:23;;;;;;;8.47;6.30;;;18.80;30.40;;;;;;12845810;23;20541;-89
2023/04/22 16:16:26;;;;;;;7.77;4.83;;;18.60;22.00;;;;;;12849343;23;20243;-89
2023/04/22 16:21:29;;;;;;;6.73;5.67;;;18.70;39.20;;;;;;12848691;23;20171;-90
2023/04/22 16:26:32;;;;;;;11.83;5.90;;;18.80;43.60;;;;;;12846629;23;20179;-90
2023/04/22 16:31:34;;;;;;;9.20;6.50;;;18.90;40.60;;;;;;12847015;23;20660;-89
2023/04/22 16:36:37;;;;;;;9.07;4.23;;;18.60;33.70;;;;;;12852540;23;20167;-89
2023/04/22 16:41:42;;;;;;;11.50;9.03;;;18.40;28.90;;;;;;12854403;23;20225;-88
2023/04/22 16:46:44;;;;;;;17.07;8.90;;;18.30;24.20;;;;;;12855127;23;20182;-89
2023/04/22 16:51:47;;;;;;;8.57;6.70;;;18.20;24.70;;;;;;12854448;23;20199;-90
2023/04/22 16:56:49;;;;;;;13.40;8.17;;;18.20;23.80;;;;;;12874125;23;20167;-90
2023/04/22 17:01:52;;;;;;;8.87;7.13;;;18.20;28.90;;;;;;12852437;23;20183;-89
2023/04/22 17:06:55;;;;;;;12.33;6.57;;;18.30;31.60;;;;;;12853319;23;20248;-89
2023/04/22 17:11:57;;;;;;;12.77;8.30;;;18.10;30.70;;;;;;12852265;23;20203;-89
2023/04/22 17:17:00;;;;;;;18.57;7.93;;;17.90;31.10;;;;;;12869786;23;20506;-87
2023/04/22 17:22:03;;;;;;;13.97;7.67;;;17.60;32.10;;;;;;12850921;23;20245;-88
2023/04/22 17:27:05;;;;;;;16.17;9.13;;;17.20;32.80;;;;;;12852063;23;20518;-88
2023/04/22 17:32:08;;;;;;;13.47;7.43;;;16.90;34.40;;;;;;12851153;23;20207;-87
2023/04/22 17:37:10;;;;;;;14.53;8.50;;;16.60;37.80;;;;;;12853032;23;20199;-88
2023/04/22 17:42:13;;;;;;;20.87;10.13;;;16.10;39.60;;;;;;12871416;23;20171;-90
2023/04/22 17:47:16;;;;;;;35.63;17.73;;;15.50;41.40;;;;;;12875800;23;20187;-88
2023/04/22 17:52:18;;;;;;;42.07;13.87;;;14.70;48.90;;;;;;12854126;23;20264;-89
2023/04/22 17:57:21;;;;;;;37.67;13.47;;;14.60;56.00;;;;;;12851937;23;20246;-88
2023/04/22 18:02:24;;;;;;;27.80;13.73;;;14.50;61.70;;;;;;12853727;23;20183;-89
2023/04/22 18:07:26;;;;;;;21.97;13.23;;;14.20;80.00;;;;;;12852020;23;20245;-89
2023/04/22 18:12:29;;;;;;;24.10;13.23;;;13.80;89.70;;;;;;12852328;23;20190;-89
2023/04/22 18:17:32;;;;;;;26.40;14.60;;;13.10;93.90;;;;;;12852456;23;20167;-89
2023/04/22 18:22:35;;;;;;;31.03;21.87;;;13.00;94.80;;;;;;12852989;23;20179;-89
2023/04/22 18:27:37;;;;;;;34.00;21.60;;;12.70;95.60;;;;;;12850797;23;20237;-88
2023/04/22 18:32:40;;;;;;;19.33;11.70;;;12.50;97.40;;;;;;12852778;23;20199;-87
2023/04/22 18:37:43;;;;;;;53.60;31.00;;;12.40;98.10;;;;;;12849710;23;20194;-87
2023/04/22 18:42:46;;;;;;;39.23;23.07;;;12.30;97.40;;;;;;12853383;23;20179;-87
2023/04/22 18:47:49;;;;;;;53.80;28.97;;;11.70;99.90;;;;;;12851662;23;20171;-87
2023/04/22 18:52:52;;;;;;;47.67;24.90;;;11.30;99.90;;;;;;12847533;23;20229;-86
2023/04/22 18:57:55;;;;;;;24.90;16.73;;;11.10;99.90;;;;;;12848391;23;20844;-84
2023/04/22 19:02:57;;;;;;;37.87;23.23;;;11.00;99.90;;;;;;12822254;23;20179;-87
2023/04/22 19:08:00;;;;;;;32.67;22.70;;;11.00;99.90;;;;;;12845833;23;20182;-87
2023/04/22 19:13:03;;;;;;;30.80;19.47;;;10.70;99.90;;;;;;12849765;23;20207;-87
2023/04/22 19:18:06;;;;;;;36.47;25.07;;;10.60;99.90;;;;;;12849333;23;20499;-86
2023/04/22 19:23:08;;;;;;;49.90;27.53;;;;;;;;;;12848831;23;20260;-86
2023/04/22 19:28:11;;;;;;;51.80;27.30;;;10.30;99.90;;;;;;12849391;23;20183;-86
2023/04/22 19:33:14;;;;;;;49.90;28.67;;;10.30;99.90;;;;;;12847080;23;20203;-87
2023/04/22 19:38:21;;;;;;;48.77;29.43;;;10.00;99.90;;;;;;12850733;23;20265;-87
2023/04/22 19:43:23;;;;;;;54.70;30.77;;;10.00;99.90;;;;;;12847942;23;20183;-87
2023/04/22 19:48:26;;;;;;;67.47;36.10;;;10.00;99.90;;;;;;12848881;23;20171;-87
2023/04/22 19:53:30;;;;;;;66.27;34.07;;;9.80;99.90;;;;;;12846944;23;20475;-87
2023/04/22 19:58:33;;;;;;;75.20;46.10;;;9.70;99.90;;;;;;12846161;23;20230;-87
2023/04/22 20:03:36;;;;;;;64.60;41.73;;;9.60;99.90;;;;;;12850892;23;20233;-87
2023/04/22 20:08:41;;;;;;;67.57;44.37;;;9.60;99.90;;;;;;12851816;23;20229;-87
2023/04/22 20:13:44;;;;;;;53.73;36.57;;;9.50;99.90;;;;;;12876453;23;20191;-87
2023/04/22 20:18:49;;;;;;;58.57;39.03;;;9.40;99.90;;;;;;12870335;23;20167;-87
2023/04/22 20:23:55;;;;;;;62.63;37.20;;;9.30;99.90;;;;;;12870337;23;20218;-87
2023/04/22 20:28:59;;;;;;;49.50;31.77;;;9.20;99.90;;;;;;12865067;23;20227;-86
2023/04/22 20:34:03;;;;;;;47.57;31.33;;;9.00;99.90;;;;;;12849698;23;20598;-88
2023/04/22 20:39:07;;;;;;;55.37;29.43;;;9.00;99.90;;;;;;12852307;23;20250;-87
2023/04/22 20:44:10;;;;;;;41.57;26.40;;;;;;;;;;12852277;23;20696;-87
2023/04/22 20:49:13;;;;;;;41.60;25.57;;;8.60;99.90;;;;;;12851298;23;20515;-87
2023/04/22 20:54:15;;;;;;;43.27;25.03;;;8.60;99.90;;;;;;12850624;23;20221;-87
2023/04/22 20:59:31;;;;;;;37.50;24.50;;;8.50;99.90;;;;;;12849742;23;20815;-87
2023/04/22 21:04:33;;;;;;;46.00;25.07;;;8.50;99.90;;;;;;12849791;23;20559;-87
2023/04/22 21:09:37;;;;;;;35.33;23.57;;;8.40;99.90;;;;;;12850589;23;20230;-87
2023/04/22 21:14:40;;;;;;;35.47;23.10;;;8.30;99.90;;;;;;12851134;23;20245;-86
2023/04/22 21:19:47;;;;;;;40.40;25.83;;;8.10;99.90;;;;;;12851137;23;20177;-87
2023/04/22 21:24:51;;;;;;;49.43;29.80;;;8.00;99.90;;;;;;12849464;23;20249;-87
2023/04/22 21:29:54;;;;;;;45.53;28.40;;;8.00;99.90;;;;;;12859593;23;20229;-87
2023/04/22 21:34:56;;;;;;;40.33;26.50;;;8.20;99.90;;;;;;12850369;23;20203;-86
2023/04/22 21:39:59;;;;;;;48.17;28.10;;;8.40;99.90;;;;;;12850866;23;20196;-87
2023/04/22 21:45:02;;;;;;;40.50;23.23;;;8.30;99.90;;;;;;12849668;23;20189;-87
2023/04/22 21:50:06;;;;;;;52.30;26.97;;;8.30;99.90;;;;;;12852199;23;20868;-87
2023/04/22 21:55:08;;;;;;;43.17;25.77;;;8.20;99.90;;;;;;12851306;23;20528;-87
2023/04/22 22:00:17;;;;;;;30.97;22.87;;;7.80;99.90;;;;;;12849674;23;20222;-87
2023/04/22 22:05:20;;;;;;;35.90;24.23;;;7.80;99.90;;;;;;12849028;23;20237;-86
2023/04/22 22:10:23;;;;;;;39.10;22.73;;;7.70;99.90;;;;;;12867149;23;20194;-86
2023/04/22 22:15:25;;;;;;;39.37;24.07;;;7.50;99.90;;;;;;12850222;23;20530;-87
2023/04/22 22:20:28;;;;;;;29.83;19.67;;;7.50;99.90;;;;;;12852137;23;20165;-87
2023/04/22 22:25:31;;;;;;;34.50;22.03;;;7.60;99.90;;;;;;12848625;23;20840;-87
2023/04/22 22:30:33;;;;;;;27.13;18.77;;;7.80;99.90;;;;;;12847311;23;20506;-86
2023/04/22 22:35:36;;;;;;;28.10;18.20;;;7.80;99.90;;;;;;12848051;23;20183;-86
2023/04/22 22:40:38;;;;;;;34.90;22.33;;;7.50;99.90;;;;;;12848933;23;20195;-86
2023/04/22 22:45:41;;;;;;;33.63;21.57;;;7.40;99.90;;;;;;12850406;23;20188;-86
2023/04/22 22:50:45;;;;;;;27.20;18.20;;;7.20;99.90;;;;;;12850014;23;20167;-86
2023/04/22 22:55:49;;;;;;;29.67;20.87;;;7.40;99.90;;;;;;12848386;23;20209;-86
2023/04/22 23:00:51;;;;;;;35.23;20.77;;;7.40;99.90;;;;;;12854387;23;20171;-86
2023/04/22 23:05:54;;;;;;;32.97;21.67;;;7.30;99.90;;;;;;12847546;23;20190;-86
2023/04/22 23:10:57;;;;;;;36.07;21.17;;;7.30;99.90;;;;;;12847543;23;20180;-86
2023/04/22 23:15:59;;;;;;;30.40;20.30;;;7.10;99.90;;;;;;12851018;23;20654;-86
2023/04/22 23:21:03;;;;;;;30.63;21.90;;;7.20;99.90;;;;;;12850846;23;20718;-87
2023/04/22 23:26:06;;;;;;;31.97;21.07;;;7.20;99.90;;;;;;12853391;23;20198;-87
2023/04/22 23:31:09;;;;;;;34.30;21.60;;;7.20;99.90;;;;;;12856772;23;20176;-85
2023/04/22 23:36:12;;;;;;;29.07;19.10;;;7.00;99.90;;;;;;12852028;23;20191;-86
2023/04/22 23:41:15;;;;;;;32.13;20.40;;;7.00;99.90;;;;;;12852656;23;20578;-85
2023/04/22 23:46:17;;;;;;;30.43;20.57;;;7.10;99.90;;;;;;12860056;23;20186;-85
2023/04/22 23:51:20;;;;;;;23.40;16.07;;;6.90;99.90;;;;;;12878100;23;20214;-85
2023/04/22 23:56:23;;;;;;;27.10;18.57;;;7.10;99.90;;;;;;12882821;23;20186;-85
